Kirovsk, Russia
Current Conditions -  °F | °C
As of 6:30 AM on Saturday 29 Nov 2014 (Local Time) from ULMM Reporting Station
Broken Clouds Broken Clouds  
Wind Chill: 17°   Ceiling: 700
Heat Index: 23°   Visibility: 6mi
Dew Point: 21°   Wind: 4mph
Humidity: 93%   Direction: NA
Pressure: 30.24"   Gusts: NA
Location:  67.61°N, 33.67°E
Report Text: ULMM 290330Z VRB02MPS 9999 BKN007 BKN080 M05/M06 Q1024 NOSIGRMK OBST OBSC QFE761 31690242
Loading
Personal Weather Stations






























Interactive Weather Map New forecast layout! Learn more

10-Day Weather Forecast

Advertisements
Track Severe Weather on mobile